Time;durP1;ratioP1;P1;durP2;ratioP2;P2;SDS_P1;SDS_P2;PMS_P1;PMS_P2;Temp;Humidity;BMP_temperature;BMP_pressure;BME280_temperature;BME280_humidity;BME280_pressure;Samples;Min_cycle;Max_cycle;Signal;HPM_P1;HPM_P2
2022/09/14 00:00:15;;;;;;;0.25;0.25;;;;;;;;;;4146558;28;20177;-41
2022/09/14 00:02:16;;;;;;;1.27;0.30;;;;;;;;;;4144740;28;20292;-41
2022/09/14 00:04:19;;;;;;;0.35;0.30;;;;;;;;;;4146309;28;20069;-41
2022/09/14 00:06:21;;;;;;;0.52;0.30;;;;;;;;;;4145324;28;20054;-41
2022/09/14 00:08:23;;;;;;;0.47;0.30;;;;;;;;;;4146362;28;20077;-41
2022/09/14 00:10:24;;;;;;;0.20;0.20;;;;;;;;;;4146563;28;20057;-41
2022/09/14 00:12:26;;;;;;;0.25;0.25;;;;;;;;;;4146447;28;20057;-41
2022/09/14 00:14:27;;;;;;;0.10;0.10;;;;;;;;;;4147016;28;20547;-42
2022/09/14 00:16:30;;;;;;;0.93;0.30;;;;;;;;;;4149682;28;20108;-42
2022/09/14 00:18:33;;;;;;;0.40;0.30;;;;;;;;;;4149123;28;20383;-42
2022/09/14 00:20:34;;;;;;;0.38;0.38;;;;;;;;;;4149429;28;20057;-42
2022/09/14 00:22:35;;;;;;;0.35;0.30;;;;;;;;;;4144556;28;20050;-42
2022/09/14 00:24:37;;;;;;;0.70;0.30;;;;;;;;;;4131393;28;20132;-42
2022/09/14 00:26:38;;;;;;;0.50;0.30;;;;;;;;;;4131349;28;20058;-42
2022/09/14 00:28:41;;;;;;;0.50;0.20;;;;;;;;;;4129688;28;20120;-42
2022/09/14 00:30:43;;;;;;;0.57;0.20;;;;;;;;;;4131289;28;20050;-42
2022/09/14 00:32:44;;;;;;;0.43;0.30;;;;;;;;;;4130963;28;20054;-41
2022/09/14 00:34:45;;;;;;;0.30;0.20;;;;;;;;;;4131025;28;20050;-42
2022/09/14 00:36:49;;;;;;;0.28;0.20;;;;;;;;;;4131210;28;20496;-42
2022/09/14 00:38:51;;;;;;;0.30;0.25;;;;;;;;;;4130917;28;20066;-42
2022/09/14 00:40:59;;;;;;;0.60;0.40;;;;;;;;;;4131194;28;20101;-42
2022/09/14 00:43:01;;;;;;;1.35;0.20;;;;;;;;;;4130963;28;20093;-42
2022/09/14 00:45:13;;;;;;;0.68;0.40;;;;;;;;;;4131084;28;20058;-42
2022/09/14 00:47:15;;;;;;;0.60;0.30;;;;;;;;;;4130192;28;20561;-42
2022/09/14 00:49:17;;;;;;;0.73;0.50;;;;;;;;;;4129673;28;20439;-42
2022/09/14 00:51:20;;;;;;;0.30;0.30;;;;;;;;;;4144752;28;20088;-42
2022/09/14 00:53:21;;;;;;;0.40;0.30;;;;;;;;;;4162160;28;20057;-42
2022/09/14 00:55:23;;;;;;;0.40;0.30;;;;;;;;;;4147117;28;20124;-42
2022/09/14 00:57:26;;;;;;;0.70;0.35;;;;;;;;;;4146931;28;20131;-42
2022/09/14 00:59:30;;;;;;;0.20;0.20;;;;;;;;;;4145442;28;20058;-42
2022/09/14 01:01:31;;;;;;;0.40;0.30;;;;;;;;;;4145571;28;20516;-41
2022/09/14 01:03:33;;;;;;;0.32;0.32;;;;;;;;;;4146141;28;20057;-42
2022/09/14 01:05:45;;;;;;;0.30;0.25;;;;;;;;;;4146842;28;20119;-42
2022/09/14 01:08:05;;;;;;;0.28;0.28;;;;;;;;;;4147005;28;20493;-42
2022/09/14 01:10:24;;;;;;;0.30;0.30;;;;;;;;;;4146940;28;20093;-42
2022/09/14 01:13:04;;;;;;;0.50;0.30;;;;;;;;;;4131295;28;20054;-42
2022/09/14 01:15:14;;;;;;;0.40;0.25;;;;;;;;;;4131092;28;20387;-42
2022/09/14 01:17:25;;;;;;;0.40;0.30;;;;;;;;;;4131967;28;20081;-42
2022/09/14 01:20:00;;;;;;;0.20;0.20;;;;;;;;;;4131567;28;20067;-42
2022/09/14 01:22:10;;;;;;;0.35;0.30;;;;;;;;;;4132568;28;20104;-42
2022/09/14 01:24:36;;;;;;;1.60;0.70;;;;;;;;;;4131082;28;20294;-42
2022/09/14 01:26:55;;;;;;;0.40;0.30;;;;;;;;;;4131379;28;20112;-42
2022/09/14 01:29:09;;;;;;;0.38;0.30;;;;;;;;;;4132287;28;20396;-42
2022/09/14 01:31:19;;;;;;;0.60;0.30;;;;;;;;;;4131050;28;20101;-41
2022/09/14 01:33:25;;;;;;;0.32;0.20;;;;;;;;;;4131241;28;20050;-42
2022/09/14 01:35:30;;;;;;;0.30;0.25;;;;;;;;;;4129067;28;20174;-41
2022/09/14 01:37:39;;;;;;;0.20;0.20;;;;;;;;;;4136981;28;20061;-42
2022/09/14 01:39:43;;;;;;;0.38;0.30;;;;;;;;;;4127746;28;20050;-42
2022/09/14 01:41:45;;;;;;;0.30;0.20;;;;;;;;;;4144224;28;20456;-42
2022/09/14 01:43:53;;;;;;;0.20;0.20;;;;;;;;;;4128087;28;20054;-43
2022/09/14 01:46:16;;;;;;;0.20;0.20;;;;;;;;;;4123801;28;20062;-42
2022/09/14 01:48:25;;;;;;;0.30;0.30;;;;;;;;;;4130028;28;20136;-42
2022/09/14 01:50:51;;;;;;;0.30;0.30;;;;;;;;;;4112894;28;20061;-42
2022/09/14 01:53:05;;;;;;;0.20;0.20;;;;;;;;;;4128235;28;20065;-42
2022/09/14 01:55:10;;;;;;;0.20;0.20;;;;;;;;;;4128667;28;20181;-42
2022/09/14 01:57:15;;;;;;;0.30;0.20;;;;;;;;;;4128522;28;20054;-42
2022/09/14 01:59:21;;;;;;;0.30;0.30;;;;;;;;;;4129847;28;20112;-42
2022/09/14 02:01:30;;;;;;;0.70;0.52;;;;;;;;;;4128478;28;20054;-42
2022/09/14 02:03:41;;;;;;;0.20;0.20;;;;;;;;;;4128033;28;20181;-42
2022/09/14 02:05:53;;;;;;;0.20;0.20;;;;;;;;;;4128737;28;20062;-42
2022/09/14 02:07:55;;;;;;;0.40;0.13;;;;;;;;;;4128432;28;20097;-42
2022/09/14 02:09:56;;;;;;;0.28;0.20;;;;;;;;;;4129544;28;20070;-42
2022/09/14 02:11:59;;;;;;;0.28;0.28;;;;;;;;;;4129718;28;20050;-42
2022/09/14 02:14:00;;;;;;;0.20;0.20;;;;;;;;;;4144525;28;20505;-42
2022/09/14 02:16:02;;;;;;;0.80;0.25;;;;;;;;;;4129761;28;20058;-42
2022/09/14 02:18:03;;;;;;;0.43;0.30;;;;;;;;;;4129185;28;20078;-41
2022/09/14 02:20:07;;;;;;;0.28;0.28;;;;;;;;;;4137164;28;20050;-41
2022/09/14 02:22:08;;;;;;;0.20;0.20;;;;;;;;;;4145489;28;20049;-42
2022/09/14 02:24:10;;;;;;;0.30;0.20;;;;;;;;;;4144479;28;20058;-42
2022/09/14 02:26:11;;;;;;;0.32;0.32;;;;;;;;;;4144361;28;20168;-42
2022/09/14 02:28:13;;;;;;;0.32;0.20;;;;;;;;;;4145522;28;20500;-42
2022/09/14 02:30:15;;;;;;;0.40;0.20;;;;;;;;;;4145552;28;20107;-42
2022/09/14 02:32:29;;;;;;;0.28;0.20;;;;;;;;;;4143731;28;20058;-42
2022/09/14 02:34:51;;;;;;;0.90;0.32;;;;;;;;;;4145284;28;20057;-42
2022/09/14 02:36:57;;;;;;;0.45;0.30;;;;;;;;;;4129511;28;20124;-42
2022/09/14 02:39:13;;;;;;;0.43;0.30;;;;;;;;;;4128927;28;20372;-42
2022/09/14 02:41:24;;;;;;;0.55;0.28;;;;;;;;;;4129175;28;20128;-42
2022/09/14 02:43:53;;;;;;;0.40;0.30;;;;;;;;;;4129233;28;20062;-42
2022/09/14 02:46:12;;;;;;;0.30;0.27;;;;;;;;;;4127780;28;20313;-42
2022/09/14 02:48:23;;;;;;;0.20;0.20;;;;;;;;;;4128684;28;20461;-42
2022/09/14 02:50:46;;;;;;;0.40;0.22;;;;;;;;;;4136759;28;20050;-42
2022/09/14 02:53:16;;;;;;;0.25;0.25;;;;;;;;;;4145317;28;20061;-42
2022/09/14 02:55:19;;;;;;;0.30;0.30;;;;;;;;;;4145594;28;20093;-42
2022/09/14 02:57:20;;;;;;;0.30;0.22;;;;;;;;;;4144745;28;20112;-42
2022/09/14 02:59:21;;;;;;;0.55;0.30;;;;;;;;;;4145411;28;20057;-42
2022/09/14 03:01:23;;;;;;;0.45;0.30;;;;;;;;;;4144018;28;20045;-42
2022/09/14 03:03:24;;;;;;;0.38;0.30;;;;;;;;;;4146402;28;20394;-42
2022/09/14 03:05:26;;;;;;;0.47;0.22;;;;;;;;;;4146925;28;20053;-42
2022/09/14 03:07:27;;;;;;;0.15;0.15;;;;;;;;;;4146394;28;20058;-42
2022/09/14 03:09:28;;;;;;;0.85;0.38;;;;;;;;;;4146566;28;20401;-42
2022/09/14 03:11:29;;;;;;;0.13;0.13;;;;;;;;;;4145628;28;20076;-43
2022/09/14 03:13:31;;;;;;;0.30;0.30;;;;;;;;;;4145676;28;20133;-43
2022/09/14 03:15:32;;;;;;;0.50;0.30;;;;;;;;;;4146966;28;20461;-42
2022/09/14 03:17:33;;;;;;;0.10;0.10;;;;;;;;;;4145268;28;20065;-42
2022/09/14 03:19:34;;;;;;;0.43;0.30;;;;;;;;;;4147150;28;20100;-42
2022/09/14 03:21:37;;;;;;;0.20;0.20;;;;;;;;;;4147295;28;20053;-42
2022/09/14 03:23:40;;;;;;;1.70;0.22;;;;;;;;;;4146971;28;20133;-42
2022/09/14 03:25:42;;;;;;;0.30;0.30;;;;;;;;;;4146978;28;20397;-42
2022/09/14 03:27:50;;;;;;;0.22;0.22;;;;;;;;;;4147039;28;20116;-42
2022/09/14 03:29:51;;;;;;;0.20;0.20;;;;;;;;;;4145928;28;20058;-42
2022/09/14 03:31:53;;;;;;;0.30;0.30;;;;;;;;;;4147114;28;20054;-42
2022/09/14 03:33:55;;;;;;;0.10;0.10;;;;;;;;;;4146439;28;20058;-42
2022/09/14 03:35:57;;;;;;;0.77;0.40;;;;;;;;;;4146733;28;20058;-41
2022/09/14 03:37:58;;;;;;;0.40;0.28;;;;;;;;;;4146625;28;20054;-42
2022/09/14 03:39:59;;;;;;;0.38;0.25;;;;;;;;;;4146642;28;20058;-42
2022/09/14 03:42:01;;;;;;;0.40;0.20;;;;;;;;;;4146819;28;20050;-42
2022/09/14 03:44:02;;;;;;;0.28;0.28;;;;;;;;;;4146535;28;20050;-42
2022/09/14 03:46:14;;;;;;;0.20;0.20;;;;;;;;;;4146950;28;20509;-42
2022/09/14 03:48:15;;;;;;;0.10;0.10;;;;;;;;;;4146170;28;20053;-42
2022/09/14 03:50:17;;;;;;;0.40;0.22;;;;;;;;;;4148604;28;20057;-42
2022/09/14 03:52:18;;;;;;;0.20;0.20;;;;;;;;;;4148970;28;20046;-42
2022/09/14 03:54:19;;;;;;;0.30;0.20;;;;;;;;;;4150116;28;20532;-42
2022/09/14 03:56:22;;;;;;;0.25;0.25;;;;;;;;;;4148713;28;20053;-42
2022/09/14 03:58:24;;;;;;;0.52;0.20;;;;;;;;;;4149935;28;20054;-41
2022/09/14 04:00:25;;;;;;;0.20;0.20;;;;;;;;;;4149822;28;20195;-42
2022/09/14 04:02:28;;;;;;;0.38;0.30;;;;;;;;;;4149358;28;20057;-42
2022/09/14 04:04:30;;;;;;;0.22;0.20;;;;;;;;;;4132106;28;20530;-42
2022/09/14 04:06:31;;;;;;;0.63;0.25;;;;;;;;;;4148575;28;20470;-42
2022/09/14 04:08:38;;;;;;;0.28;0.28;;;;;;;;;;4148840;28;20100;-42
2022/09/14 04:10:39;;;;;;;0.50;0.30;;;;;;;;;;4149482;28;20060;-42
2022/09/14 04:12:40;;;;;;;0.20;0.10;;;;;;;;;;4148811;28;20049;-42
2022/09/14 04:14:41;;;;;;;0.25;0.10;;;;;;;;;;4164311;28;20574;-42
2022/09/14 04:16:43;;;;;;;0.22;0.20;;;;;;;;;;4149496;28;20057;-42
2022/09/14 04:18:45;;;;;;;0.40;0.20;;;;;;;;;;4148982;28;20061;-42
2022/09/14 04:21:03;;;;;;;0.20;0.20;;;;;;;;;;4149855;28;20057;-42
2022/09/14 04:23:04;;;;;;;0.20;0.20;;;;;;;;;;4149573;28;20395;-42
2022/09/14 04:25:05;;;;;;;0.40;0.20;;;;;;;;;;4149743;28;20062;-42
2022/09/14 04:27:07;;;;;;;1.17;0.30;;;;;;;;;;4149402;28;20414;-42
2022/09/14 04:29:09;;;;;;;0.35;0.30;;;;;;;;;;4149787;28;20053;-42
2022/09/14 04:31:11;;;;;;;0.38;0.30;;;;;;;;;;4148204;28;20461;-42
2022/09/14 04:33:12;;;;;;;0.50;0.20;;;;;;;;;;4148853;28;20064;-42
2022/09/14 04:35:13;;;;;;;0.13;0.13;;;;;;;;;;4149347;28;20061;-42
2022/09/14 04:37:14;;;;;;;0.20;0.20;;;;;;;;;;4149174;28;20053;-42
2022/09/14 04:39:16;;;;;;;0.30;0.30;;;;;;;;;;4149585;28;20100;-41
2022/09/14 04:41:19;;;;;;;0.20;0.20;;;;;;;;;;4148015;28;20050;-42
2022/09/14 04:43:21;;;;;;;0.30;0.20;;;;;;;;;;4149214;28;20456;-42
2022/09/14 04:45:23;;;;;;;0.30;0.20;;;;;;;;;;4149270;28;20065;-42
2022/09/14 04:47:24;;;;;;;0.30;0.30;;;;;;;;;;4148841;28;20137;-42
2022/09/14 04:49:25;;;;;;;0.80;0.38;;;;;;;;;;4149523;28;20049;-42
2022/09/14 04:51:29;;;;;;;0.30;0.30;;;;;;;;;;4133336;28;20050;-41
2022/09/14 04:53:32;;;;;;;0.20;0.20;;;;;;;;;;4131505;28;20579;-42
2022/09/14 04:55:33;;;;;;;0.20;0.20;;;;;;;;;;4132765;28;20112;-42
2022/09/14 04:57:34;;;;;;;0.30;0.20;;;;;;;;;;4131536;28;20510;-42
2022/09/14 04:59:35;;;;;;;0.50;0.20;;;;;;;;;;4141060;28;20096;-42
2022/09/14 05:01:39;;;;;;;0.47;0.28;;;;;;;;;;4134084;28;20495;-41
2022/09/14 05:03:41;;;;;;;0.47;0.28;;;;;;;;;;4145001;28;20095;-41
2022/09/14 05:05:42;;;;;;;0.30;0.20;;;;;;;;;;4138567;28;20053;-42
2022/09/14 05:07:44;;;;;;;0.20;0.20;;;;;;;;;;4146549;28;20513;-42
2022/09/14 05:09:45;;;;;;;0.60;0.35;;;;;;;;;;4146974;28;20058;-42
2022/09/14 05:11:48;;;;;;;0.10;0.10;;;;;;;;;;4146946;28;20053;-41
2022/09/14 05:13:50;;;;;;;0.55;0.15;;;;;;;;;;4146487;28;20135;-41
2022/09/14 05:15:51;;;;;;;0.55;0.35;;;;;;;;;;4145267;28;20058;-41
2022/09/14 05:17:52;;;;;;;0.13;0.13;;;;;;;;;;4146004;28;20061;-42
2022/09/14 05:19:53;;;;;;;0.10;0.10;;;;;;;;;;4146640;28;20520;-42
2022/09/14 05:21:55;;;;;;;0.38;0.20;;;;;;;;;;4146617;28;20092;-42
2022/09/14 05:24:01;;;;;;;0.70;0.20;;;;;;;;;;4145207;28;20049;-42
2022/09/14 05:26:03;;;;;;;0.13;0.13;;;;;;;;;;4146537;28;20058;-41
2022/09/14 05:28:04;;;;;;;0.25;0.20;;;;;;;;;;4145197;28;20084;-41
2022/09/14 05:30:06;;;;;;;0.30;0.10;;;;;;;;;;4144714;28;20064;-42
2022/09/14 05:32:08;;;;;;;0.20;0.20;;;;;;;;;;4140308;28;20058;-42
2022/09/14 05:34:09;;;;;;;0.17;0.17;;;;;;;;;;4142742;28;20057;-42
2022/09/14 05:36:11;;;;;;;0.25;0.10;;;;;;;;;;4145528;28;20116;-42
2022/09/14 05:38:12;;;;;;;0.13;0.10;;;;;;;;;;4145662;28;20096;-41
2022/09/14 05:40:13;;;;;;;0.10;0.10;;;;;;;;;;4145617;28;20136;-42
2022/09/14 05:42:14;;;;;;;1.85;0.20;;;;;;;;;;4145611;28;20050;-42
2022/09/14 05:44:15;;;;;;;0.10;0.10;;;;;;;;;;4145490;28;20116;-41
2022/09/14 05:46:21;;;;;;;0.20;0.20;;;;;;;;;;4145613;28;20116;-42
2022/09/14 05:48:22;;;;;;;0.20;0.20;;;;;;;;;;4144983;28;20092;-42
2022/09/14 05:50:23;;;;;;;0.30;0.20;;;;;;;;;;4145412;28;20104;-41
2022/09/14 05:52:24;;;;;;;0.65;0.10;;;;;;;;;;4145299;28;20859;-42
2022/09/14 05:54:25;;;;;;;0.38;0.15;;;;;;;;;;4145017;28;20084;-42
2022/09/14 05:56:28;;;;;;;0.30;0.20;;;;;;;;;;4144916;28;20615;-42
2022/09/14 05:58:29;;;;;;;0.30;0.28;;;;;;;;;;4140793;28;20128;-41
2022/09/14 06:00:30;;;;;;;0.30;0.20;;;;;;;;;;4143926;28;20116;-42
2022/09/14 06:02:32;;;;;;;0.30;0.30;;;;;;;;;;4141167;28;20080;-42
2022/09/14 06:04:33;;;;;;;0.20;0.20;;;;;;;;;;4145112;28;20058;-42
2022/09/14 06:06:34;;;;;;;0.30;0.22;;;;;;;;;;4145842;28;20100;-42
2022/09/14 06:08:36;;;;;;;0.28;0.20;;;;;;;;;;4145992;28;20054;-45
2022/09/14 06:10:37;;;;;;;0.15;0.10;;;;;;;;;;4145717;28;20108;-41
2022/09/14 06:12:38;;;;;;;0.00;0.00;;;;;;;;;;4144793;28;20448;-42
2022/09/14 06:14:40;;;;;;;0.10;0.10;;;;;;;;;;4145611;28;20092;-42
2022/09/14 06:16:41;;;;;;;2.25;0.20;;;;;;;;;;4145754;28;20560;-41
2022/09/14 06:18:43;;;;;;;0.20;0.20;;;;;;;;;;4143960;28;20112;-42
2022/09/14 06:20:51;;;;;;;0.30;0.20;;;;;;;;;;4142480;28;20054;-45
2022/09/14 06:22:52;;;;;;;0.47;0.10;;;;;;;;;;4143030;28;20054;-42
2022/09/14 06:24:53;;;;;;;0.10;0.10;;;;;;;;;;4142024;28;20058;-41
2022/09/14 06:26:54;;;;;;;0.10;0.10;;;;;;;;;;4141203;28;20387;-42
2022/09/14 06:28:55;;;;;;;0.10;0.10;;;;;;;;;;4140851;28;20060;-43
2022/09/14 06:30:57;;;;;;;0.30;0.10;;;;;;;;;;4139357;28;20058;-43
2022/09/14 06:32:58;;;;;;;0.30;0.20;;;;;;;;;;4141017;28;20572;-43
2022/09/14 06:34:59;;;;;;;0.20;0.20;;;;;;;;;;4140094;28;20084;-42
2022/09/14 06:37:00;;;;;;;0.20;0.20;;;;;;;;;;4140090;28;20100;-42
2022/09/14 06:39:01;;;;;;;1.02;0.10;;;;;;;;;;4140275;28;20166;-43
2022/09/14 06:41:05;;;;;;;0.10;0.10;;;;;;;;;;4138555;28;20496;-42
2022/09/14 06:43:06;;;;;;;0.45;0.30;;;;;;;;;;4141744;28;20054;-42
2022/09/14 06:45:08;;;;;;;0.30;0.22;;;;;;;;;;4141827;28;20057;-43
2022/09/14 06:47:09;;;;;;;0.25;0.25;;;;;;;;;;4142698;28;20128;-42
2022/09/14 06:49:12;;;;;;;0.17;0.17;;;;;;;;;;4139469;28;20115;-42
2022/09/14 06:51:29;;;;;;;0.28;0.10;;;;;;;;;;4138242;28;20453;-43
2022/09/14 06:53:30;;;;;;;0.40;0.20;;;;;;;;;;4137971;28;20611;-42
2022/09/14 06:55:32;;;;;;;0.82;0.10;;;;;;;;;;4140550;28;20050;-42
2022/09/14 06:57:33;;;;;;;0.17;0.17;;;;;;;;;;4134879;28;20058;-41
2022/09/14 06:59:34;;;;;;;0.20;0.10;;;;;;;;;;4136774;28;20505;-42
2022/09/14 07:01:35;;;;;;;0.20;0.20;;;;;;;;;;4137041;28;20073;-42
2022/09/14 07:03:38;;;;;;;1.02;0.10;;;;;;;;;;4136257;28;20066;-42
2022/09/14 07:05:43;;;;;;;0.25;0.20;;;;;;;;;;4136025;28;20324;-41
2022/09/14 07:07:44;;;;;;;0.30;0.20;;;;;;;;;;4121372;28;20097;-42
2022/09/14 07:09:46;;;;;;;0.30;0.30;;;;;;;;;;4135876;28;20058;-42
2022/09/14 07:11:48;;;;;;;0.00;0.00;;;;;;;;;;4140308;28;20124;-42
2022/09/14 07:13:49;;;;;;;0.10;0.10;;;;;;;;;;4131078;28;20062;-41
2022/09/14 07:15:50;;;;;;;0.50;0.20;;;;;;;;;;4127987;28;20058;-42
2022/09/14 07:17:52;;;;;;;2.15;0.20;;;;;;;;;;4133387;28;20058;-41
2022/09/14 07:19:54;;;;;;;0.32;0.20;;;;;;;;;;4133535;28;20062;-41
2022/09/14 07:21:55;;;;;;;1.20;0.20;;;;;;;;;;4135902;28;20453;-40
2022/09/14 07:23:56;;;;;;;0.30;0.20;;;;;;;;;;4135877;28;20053;-41
2022/09/14 07:26:01;;;;;;;0.30;0.20;;;;;;;;;;4135364;28;20116;-42
2022/09/14 07:28:03;;;;;;;0.93;0.28;;;;;;;;;;4136221;28;20057;-42
2022/09/14 07:30:05;;;;;;;1.90;0.20;;;;;;;;;;4134956;28;20079;-41
2022/09/14 07:32:07;;;;;;;0.98;0.10;;;;;;;;;;4136637;28;20100;-43
2022/09/14 07:34:08;;;;;;;0.88;0.30;;;;;;;;;;4134485;28;20058;-42
2022/09/14 07:36:11;;;;;;;0.20;0.10;;;;;;;;;;4133061;28;20583;-42
2022/09/14 07:38:12;;;;;;;0.20;0.10;;;;;;;;;;4134727;28;20065;-41
2022/09/14 07:40:13;;;;;;;0.10;0.10;;;;;;;;;;4137987;28;20058;-41
2022/09/14 07:42:14;;;;;;;0.10;0.10;;;;;;;;;;4133914;28;20187;-41
2022/09/14 07:44:16;;;;;;;0.22;0.22;;;;;;;;;;4136927;28;20108;-42
2022/09/14 07:46:19;;;;;;;0.52;0.15;;;;;;;;;;4134815;28;20061;-42
2022/09/14 07:48:20;;;;;;;0.13;0.10;;;;;;;;;;4133657;28;20050;-41
2022/09/14 07:50:21;;;;;;;0.28;0.20;;;;;;;;;;4133363;28;20132;-42
2022/09/14 07:52:23;;;;;;;1.13;0.20;;;;;;;;;;4135198;28;20061;-41
2022/09/14 07:54:24;;;;;;;0.30;0.10;;;;;;;;;;4134209;28;20100;-41
2022/09/14 07:56:25;;;;;;;0.20;0.20;;;;;;;;;;4136447;28;20054;-41
2022/09/14 07:58:28;;;;;;;0.30;0.10;;;;;;;;;;4130978;28;20054;-41
2022/09/14 08:00:29;;;;;;;0.38;0.10;;;;;;;;;;4133302;28;20116;-41
2022/09/14 08:02:31;;;;;;;1.92;0.28;;;;;;;;;;4134081;28;20058;-41
2022/09/14 08:04:34;;;;;;;0.28;0.10;;;;;;;;;;4133033;28;20196;-41
2022/09/14 08:06:36;;;;;;;0.25;0.15;;;;;;;;;;4133959;28;20841;-42
2022/09/14 08:08:40;;;;;;;1.13;0.20;;;;;;;;;;4133103;28;20580;-43
2022/09/14 08:10:41;;;;;;;1.85;0.22;;;;;;;;;;4133305;28;20089;-42
2022/09/14 08:12:43;;;;;;;0.20;0.08;;;;;;;;;;4131847;28;20054;-45
2022/09/14 08:14:44;;;;;;;0.52;0.22;;;;;;;;;;4133544;28;20062;-43
2022/09/14 08:16:45;;;;;;;0.60;0.15;;;;;;;;;;4135749;28;20046;-42
2022/09/14 08:18:47;;;;;;;0.60;0.30;;;;;;;;;;4132924;28;20103;-42
2022/09/14 08:20:48;;;;;;;0.98;0.15;;;;;;;;;;4135296;28;20050;-43
2022/09/14 08:22:50;;;;;;;0.65;0.20;;;;;;;;;;4136631;28;20064;-42
2022/09/14 08:24:51;;;;;;;1.95;0.30;;;;;;;;;;4138517;28;20104;-43
2022/09/14 08:26:53;;;;;;;0.30;0.20;;;;;;;;;;4137123;28;20050;-42
2022/09/14 08:28:55;;;;;;;0.57;0.20;;;;;;;;;;4131578;28;20088;-42
2022/09/14 08:31:04;;;;;;;0.85;0.17;;;;;;;;;;4136094;28;20050;-43
2022/09/14 08:33:05;;;;;;;0.52;0.20;;;;;;;;;;4131490;28;20152;-44
2022/09/14 08:35:07;;;;;;;0.90;0.30;;;;;;;;;;4137080;28;20116;-45
2022/09/14 08:37:10;;;;;;;3.17;0.30;;;;;;;;;;4138896;28;20108;-43
2022/09/14 08:39:13;;;;;;;0.30;0.20;;;;;;;;;;4135327;28;20524;-44
2022/09/14 08:41:42;;;;;;;0.80;0.22;;;;;;;;;;4135556;28;20841;-44
2022/09/14 08:43:43;;;;;;;0.10;0.10;;;;;;;;;;4132540;28;20058;-44
2022/09/14 08:45:45;;;;;;;1.63;0.70;;;;;;;;;;4136780;28;20176;-41
2022/09/14 08:47:46;;;;;;;0.10;0.10;;;;;;;;;;4136186;28;20124;-45
2022/09/14 08:49:54;;;;;;;0.13;0.10;;;;;;;;;;4137024;28;20057;-42
2022/09/14 08:51:55;;;;;;;0.30;0.20;;;;;;;;;;4135892;28;20525;-43
2022/09/14 08:53:58;;;;;;;1.52;0.30;;;;;;;;;;4137210;28;20191;-44
2022/09/14 08:56:27;;;;;;;1.88;0.22;;;;;;;;;;4149241;28;20050;-46
2022/09/14 08:58:40;;;;;;;0.57;0.20;;;;;;;;;;4129055;28;20069;-47
2022/09/14 09:00:48;;;;;;;0.38;0.22;;;;;;;;;;4129927;28;20065;-44
2022/09/14 09:02:55;;;;;;;0.77;0.20;;;;;;;;;;4135941;28;20095;-46
2022/09/14 09:05:03;;;;;;;0.20;0.13;;;;;;;;;;4139934;28;20072;-44
2022/09/14 09:07:11;;;;;;;0.45;0.20;;;;;;;;;;4136718;28;20100;-44
2022/09/14 09:09:21;;;;;;;0.40;0.17;;;;;;;;;;4137399;28;20454;-45
2022/09/14 09:11:25;;;;;;;1.55;0.20;;;;;;;;;;4140010;28;20541;-47
2022/09/14 09:13:30;;;;;;;0.10;0.10;;;;;;;;;;4138889;28;20057;-45
2022/09/14 09:15:50;;;;;;;0.30;0.20;;;;;;;;;;4134532;28;20123;-45
2022/09/14 09:17:55;;;;;;;0.52;0.13;;;;;;;;;;4133434;28;20885;-45
2022/09/14 09:20:08;;;;;;;2.40;0.20;;;;;;;;;;4130318;28;20058;-45
2022/09/14 09:22:13;;;;;;;0.60;0.30;;;;;;;;;;4140429;28;20050;-44
2022/09/14 09:24:27;;;;;;;0.45;0.10;;;;;;;;;;4139367;28;20462;-45
2022/09/14 09:26:30;;;;;;;0.30;0.10;;;;;;;;;;4139013;28;20058;-44
2022/09/14 09:28:32;;;;;;;0.47;0.10;;;;;;;;;;4137864;28;20136;-46
2022/09/14 09:30:33;;;;;;;0.20;0.10;;;;;;;;;;4139123;28;20061;-45
2022/09/14 09:32:35;;;;;;;0.22;0.20;;;;;;;;;;4138735;28;20049;-45
2022/09/14 09:35:21;;;;;;;0.10;0.10;;;;;;;;;;4139257;28;20073;-45
2022/09/14 09:37:40;;;;;;;0.20;0.20;;;;;;;;;;4120595;28;20471;-44
2022/09/14 09:39:42;;;;;;;0.20;0.17;;;;;;;;;;4137074;28;20061;-44
2022/09/14 09:41:50;;;;;;;0.32;0.13;;;;;;;;;;4137541;28;20058;-44
2022/09/14 09:44:01;;;;;;;0.40;0.20;;;;;;;;;;4139830;28;20126;-44
2022/09/14 09:46:04;;;;;;;0.57;0.20;;;;;;;;;;4134955;28;20104;-46
2022/09/14 09:48:09;;;;;;;0.43;0.15;;;;;;;;;;4140238;28;20064;-45
2022/09/14 09:50:13;;;;;;;0.15;0.10;;;;;;;;;;4140888;28;20083;-46
2022/09/14 09:52:15;;;;;;;0.20;0.20;;;;;;;;;;4137176;28;20050;-43
2022/09/14 09:54:28;;;;;;;0.17;0.10;;;;;;;;;;4136210;28;20473;-46
2022/09/14 09:56:32;;;;;;;2.45;0.20;;;;;;;;;;4135497;28;20109;-45
2022/09/14 09:58:37;;;;;;;0.10;0.10;;;;;;;;;;4135212;28;20054;-43
2022/09/14 10:00:38;;;;;;;2.05;0.10;;;;;;;;;;4133848;28;20100;-42
2022/09/14 10:02:40;;;;;;;0.10;0.10;;;;;;;;;;4127153;28;20140;-46
2022/09/14 10:05:07;;;;;;;1.77;0.20;;;;;;;;;;4128616;28;20481;-44
2022/09/14 10:07:19;;;;;;;0.32;0.15;;;;;;;;;;4137852;28;20054;-45
2022/09/14 10:09:22;;;;;;;1.05;0.13;;;;;;;;;;4138213;28;20061;-44
2022/09/14 10:11:36;;;;;;;0.30;0.20;;;;;;;;;;4137756;28;20069;-44
2022/09/14 10:13:39;;;;;;;1.67;0.15;;;;;;;;;;4139297;28;20066;-45
2022/09/14 10:15:42;;;;;;;0.20;0.20;;;;;;;;;;4130663;28;20064;-44
2022/09/14 10:18:11;;;;;;;0.73;0.20;;;;;;;;;;4138589;28;20065;-44
2022/09/14 10:20:20;;;;;;;0.10;0.10;;;;;;;;;;4140431;28;20053;-45
2022/09/14 10:22:28;;;;;;;0.10;0.10;;;;;;;;;;4139450;28;20051;-45
2022/09/14 10:24:31;;;;;;;0.17;0.10;;;;;;;;;;4134318;28;20057;-45
2022/09/14 10:26:34;;;;;;;1.00;0.10;;;;;;;;;;4138581;28;20089;-45
2022/09/14 10:28:36;;;;;;;0.45;0.20;;;;;;;;;;4128859;28;20054;-45
2022/09/14 10:30:48;;;;;;;0.63;0.30;;;;;;;;;;4131281;28;20761;-46
2022/09/14 10:33:03;;;;;;;0.20;0.20;;;;;;;;;;4135781;28;20512;-46
2022/09/14 10:35:11;;;;;;;0.30;0.20;;;;;;;;;;4139294;28;20054;-43
2022/09/14 10:37:22;;;;;;;0.30;0.20;;;;;;;;;;4138663;28;20119;-45
2022/09/14 10:39:38;;;;;;;0.52;0.20;;;;;;;;;;4136966;28;20099;-42
2022/09/14 10:41:59;;;;;;;0.40;0.20;;;;;;;;;;4139345;28;20058;-44
2022/09/14 10:44:25;;;;;;;0.50;0.20;;;;;;;;;;4136975;28;20525;-43
2022/09/14 10:46:29;;;;;;;0.30;0.20;;;;;;;;;;4137514;28;20066;-44
2022/09/14 10:48:44;;;;;;;0.45;0.28;;;;;;;;;;4135371;28;20544;-43
2022/09/14 10:50:45;;;;;;;1.20;0.20;;;;;;;;;;4137062;28;20129;-43
2022/09/14 10:52:55;;;;;;;3.42;0.73;;;;;;;;;;4135017;28;20057;-44
2022/09/14 10:55:05;;;;;;;0.10;0.10;;;;;;;;;;4120518;28;21129;-44
2022/09/14 10:57:09;;;;;;;0.20;0.10;;;;;;;;;;4137329;28;20061;-44
2022/09/14 10:59:49;;;;;;;0.38;0.17;;;;;;;;;;4136906;28;20069;-44
2022/09/14 11:02:19;;;;;;;0.73;0.20;;;;;;;;;;4126845;28;20579;-44
2022/09/14 11:04:46;;;;;;;0.30;0.20;;;;;;;;;;4132915;28;20062;-44
2022/09/14 11:07:13;;;;;;;0.43;0.10;;;;;;;;;;4135651;28;20057;-46
2022/09/14 11:09:25;;;;;;;1.75;0.20;;;;;;;;;;4135698;28;20494;-45
2022/09/14 11:11:38;;;;;;;0.20;0.20;;;;;;;;;;4135979;28;20160;-47
2022/09/14 11:14:01;;;;;;;1.02;0.17;;;;;;;;;;4121037;28;20060;-45
2022/09/14 11:16:11;;;;;;;0.17;0.17;;;;;;;;;;4136241;28;20064;-46
2022/09/14 11:18:22;;;;;;;0.40;0.20;;;;;;;;;;4133557;28;20093;-46
2022/09/14 11:20:36;;;;;;;0.25;0.08;;;;;;;;;;4133839;28;20053;-46
2022/09/14 11:23:12;;;;;;;0.68;0.30;;;;;;;;;;4137083;28;20508;-45
2022/09/14 11:25:20;;;;;;;0.40;0.22;;;;;;;;;;4135882;28;20493;-45
2022/09/14 11:27:21;;;;;;;0.20;0.13;;;;;;;;;;4135549;28;20525;-46
2022/09/14 11:29:30;;;;;;;0.38;0.20;;;;;;;;;;4133052;28;20525;-46
2022/09/14 11:31:35;;;;;;;0.17;0.17;;;;;;;;;;4131460;28;20167;-47
2022/09/14 11:33:55;;;;;;;1.58;0.20;;;;;;;;;;4134636;28;20145;-47
2022/09/14 11:36:00;;;;;;;0.10;0.10;;;;;;;;;;4138907;28;20053;-47
2022/09/14 11:38:07;;;;;;;0.50;0.15;;;;;;;;;;4136568;28;20056;-46
2022/09/14 11:40:21;;;;;;;0.70;0.20;;;;;;;;;;4120251;28;20066;-46
2022/09/14 11:42:31;;;;;;;0.20;0.13;;;;;;;;;;4126702;28;20489;-47
2022/09/14 11:44:36;;;;;;;1.92;0.20;;;;;;;;;;4128407;28;20235;-45
2022/09/14 11:47:02;;;;;;;0.13;0.10;;;;;;;;;;4135608;28;20595;-44
2022/09/14 11:49:24;;;;;;;0.38;0.30;;;;;;;;;;4136849;28;20504;-45
2022/09/14 11:51:31;;;;;;;0.10;0.10;;;;;;;;;;4132293;28;20383;-46
2022/09/14 11:53:32;;;;;;;0.65;0.20;;;;;;;;;;4131152;28;20049;-45
2022/09/14 11:55:34;;;;;;;0.75;0.30;;;;;;;;;;4132787;28;20160;-48
2022/09/14 11:57:36;;;;;;;1.00;0.30;;;;;;;;;;4123491;28;21364;-45
2022/09/14 11:59:40;;;;;;;0.40;0.20;;;;;;;;;;4128919;28;20410;-47
2022/09/14 12:01:41;;;;;;;0.43;0.30;;;;;;;;;;4128200;28;20104;-46
2022/09/14 12:03:52;;;;;;;0.60;0.20;;;;;;;;;;4133600;28;20069;-49
2022/09/14 12:05:54;;;;;;;0.68;0.30;;;;;;;;;;4133319;28;20520;-48
2022/09/14 12:07:59;;;;;;;1.95;0.40;;;;;;;;;;4133306;28;20053;-49
2022/09/14 12:10:19;;;;;;;0.57;0.28;;;;;;;;;;4131532;28;21622;-50
2022/09/14 12:12:26;;;;;;;;;;;;;;;;;;4139127;28;20065;-49
2022/09/14 12:14:34;;;;;;;0.57;0.20;;;;;;;;;;4133591;28;19932;-50
2022/09/14 12:17:04;;;;;;;0.10;0.10;;;;;;;;;;4137047;28;20147;-48
2022/09/14 12:19:15;;;;;;;0.15;0.15;;;;;;;;;;4138361;28;20100;-48
2022/09/14 12:21:28;;;;;;;0.25;0.15;;;;;;;;;;4154102;28;20062;-56
2022/09/14 12:23:42;;;;;;;2.47;0.28;;;;;;;;;;4138413;28;20058;-48
2022/09/14 12:26:04;;;;;;;1.02;0.30;;;;;;;;;;4140288;28;20424;-54
2022/09/14 12:28:34;;;;;;;0.30;0.10;;;;;;;;;;4140896;28;20127;-50
2022/09/14 12:30:38;;;;;;;0.73;0.20;;;;;;;;;;4134978;28;20066;-47
2022/09/14 12:32:42;;;;;;;2.60;0.22;;;;;;;;;;4131395;28;20513;-46
2022/09/14 12:34:43;;;;;;;0.47;0.30;;;;;;;;;;4137466;28;20057;-49